Time;durP1;ratioP1;P1;durP2;ratioP2;P2;SDS_P1;SDS_P2;PMS_P1;PMS_P2;Temp;Humidity;BMP_temperature;BMP_pressure;BME280_temperature;BME280_humidity;BME280_pressure;Samples;Min_cycle;Max_cycle;Signal;HPM_P1;HPM_P2
2023/08/21 00:00:05;;;;;;;4.60;3.70;;;;;;;30.05;38.47;100928.77;103672;1284;65849;-81
2023/08/21 00:02:31;;;;;;;4.60;3.60;;;;;;;30.05;38.42;100928.44;103719;1290;61332;-81
2023/08/21 00:04:57;;;;;;;5.10;3.70;;;;;;;30.05;38.65;100927.14;103708;1284;61340;-81
2023/08/21 00:07:22;;;;;;;5.10;3.80;;;;;;;30.05;38.63;100929.32;103558;1286;62121;-81
2023/08/21 00:09:48;;;;;;;5.50;4.00;;;;;;;30.04;38.55;100925.06;103670;1284;61424;-81
2023/08/21 00:12:14;;;;;;;5.10;4.00;;;;;;;30.04;38.58;100925.40;103602;1284;61462;-82
2023/08/21 00:14:39;;;;;;;4.80;3.70;;;;;;;30.04;38.69;100922.86;103626;1285;61290;-81
2023/08/21 00:17:05;;;;;;;4.60;4.00;;;;;;;30.04;38.53;100924.99;103626;1285;61465;-81
2023/08/21 00:19:32;;;;;;;5.60;4.10;;;;;;;30.04;38.62;100923.06;103776;1287;61437;-81
2023/08/21 00:21:58;;;;;;;5.00;3.80;;;;;;;30.04;38.71;100925.23;103737;1284;62512;-81
2023/08/21 00:24:24;;;;;;;4.80;3.50;;;;;;;30.04;38.64;100924.34;103563;1284;61405;-81
2023/08/21 00:26:50;;;;;;;4.70;3.60;;;;;;;30.04;38.59;100920.01;103714;1285;61315;-81
2023/08/21 00:29:16;;;;;;;4.70;3.80;;;;;;;30.04;38.57;100921.09;103593;1284;61385;-81
2023/08/21 00:31:41;;;;;;;5.70;4.00;;;;;;;30.04;38.66;100924.19;103724;1285;62546;-81
2023/08/21 00:34:07;;;;;;;5.00;4.20;;;;;;;30.03;38.59;100925.48;103639;1284;65865;-83
2023/08/21 00:36:32;;;;;;;5.90;4.10;;;;;;;30.03;38.50;100930.95;103657;1290;61358;-81
2023/08/21 00:38:58;;;;;;;5.20;3.80;;;;;;;30.03;38.52;100933.13;103589;1284;61896;-82
2023/08/21 00:41:24;;;;;;;4.30;3.60;;;;;;;30.03;38.68;100934.56;103635;1289;61775;-81
2023/08/21 00:43:49;;;;;;;5.00;3.90;;;;;;;30.03;38.71;100932.63;103642;1285;61467;-81
2023/08/21 00:46:15;;;;;;;5.40;3.90;;;;;;;30.03;38.62;100932.79;103584;1285;66294;-81
2023/08/21 00:48:41;;;;;;;4.90;4.00;;;;;;;30.03;38.42;100934.39;103680;1284;62505;-81
2023/08/21 00:51:06;;;;;;;4.70;4.20;;;;;;;30.03;38.58;100935.67;103529;1285;61379;-81
2023/08/21 00:53:33;;;;;;;4.70;3.70;;;;;;;30.03;38.75;100930.95;103467;1284;62064;-82
2023/08/21 00:55:58;;;;;;;4.90;4.10;;;;;;;30.03;38.81;100932.61;103560;1290;61376;-81
2023/08/21 00:58:24;;;;;;;4.40;3.80;;;;;;;30.02;38.65;100932.48;103671;1285;61437;-81
2023/08/21 01:00:50;;;;;;;4.80;3.80;;;;;;;30.03;38.68;100935.70;103679;1285;61481;-81
2023/08/21 01:03:15;;;;;;;5.30;4.00;;;;;;;30.03;38.62;100936.77;103599;1284;61467;-81
2023/08/21 01:05:41;;;;;;;4.90;3.80;;;;;;;30.03;38.64;100935.00;103432;1285;61421;-82
2023/08/21 01:08:25;;;;;;;5.80;3.70;;;;;;;30.03;38.43;100938.26;103556;1293;61427;-82
2023/08/21 01:10:58;;;;;;;4.70;3.80;;;;;;;30.01;38.70;100939.86;103668;1284;61290;-81
2023/08/21 01:13:50;;;;;;;5.30;3.90;;;;;;;30.02;38.61;100940.50;103761;1284;61287;-81
2023/08/21 01:16:15;;;;;;;4.60;4.00;;;;;;;30.02;38.64;100939.63;103671;1289;63989;-81
2023/08/21 01:18:41;;;;;;;6.00;3.90;;;;;;;30.02;38.78;100939.27;103611;1284;61407;-81
2023/08/21 01:21:06;;;;;;;4.40;3.90;;;;;;;30.01;38.54;100938.73;103568;1290;62397;-82
2023/08/21 01:23:34;;;;;;;5.10;4.00;;;;;;;30.02;38.73;100937.27;103812;1285;61892;-82
2023/08/21 01:25:59;;;;;;;5.00;4.10;;;;;;;30.02;38.68;100936.35;103668;1285;61408;-81
2023/08/21 01:28:25;;;;;;;4.50;3.50;;;;;;;30.01;38.64;100934.42;103708;1284;61407;-81
2023/08/21 01:30:52;;;;;;;5.40;3.90;;;;;;;30.01;38.71;100932.23;103625;1290;61316;-81
2023/08/21 01:33:17;;;;;;;6.80;3.90;;;;;;;30.01;38.82;100931.52;103706;1285;61354;-81
2023/08/21 01:35:43;;;;;;;5.50;4.30;;;;;;;30.01;38.60;100931.86;103705;1285;61386;-81
2023/08/21 01:38:09;;;;;;;5.20;4.20;;;;;;;30.02;38.64;100939.12;103639;1290;61427;-82
2023/08/21 01:40:34;;;;;;;4.90;4.00;;;;;;;30.01;38.63;100942.20;103763;1284;61373;-81
2023/08/21 01:43:00;;;;;;;4.80;3.90;;;;;;;30.02;38.51;100942.55;103663;1285;62487;-81
2023/08/21 01:45:25;;;;;;;4.70;3.90;;;;;;;30.01;38.70;100941.87;103644;1290;62076;-82
2023/08/21 01:47:51;;;;;;;5.70;4.10;;;;;;;30.01;38.67;100943.16;103586;1284;61465;-81
2023/08/21 01:50:17;;;;;;;5.20;4.10;;;;;;;30.01;38.70;100942.61;103572;1292;61361;-82
2023/08/21 01:52:42;;;;;;;5.00;4.00;;;;;;;30.01;38.58;100946.05;103617;1284;62309;-81
2023/08/21 01:55:08;;;;;;;5.40;4.10;;;;;;;30.01;38.69;100946.25;103658;1284;61315;-81
2023/08/21 01:57:34;;;;;;;5.00;4.10;;;;;;;30.00;38.82;100949.21;103749;1290;61520;-81
2023/08/21 01:59:59;;;;;;;4.90;4.00;;;;;;;30.01;38.69;100947.20;103446;1285;61354;-81
2023/08/21 02:02:26;;;;;;;4.80;4.00;;;;;;;30.01;38.78;100946.11;103721;1290;61305;-81
2023/08/21 02:04:51;;;;;;;4.90;3.90;;;;;;;30.00;38.67;100947.04;103649;1285;61410;-81
2023/08/21 02:07:17;;;;;;;5.90;4.20;;;;;;;30.01;38.72;100947.75;103673;1285;61336;-81
2023/08/21 02:09:42;;;;;;;5.20;4.00;;;;;;;30.00;38.85;100944.52;103617;1285;61429;-82
2023/08/21 02:12:08;;;;;;;5.20;4.10;;;;;;;30.00;38.76;100945.27;103616;1285;61488;-81
2023/08/21 02:14:34;;;;;;;4.50;4.00;;;;;;;30.00;38.78;100941.29;103773;1285;63937;-81
2023/08/21 02:16:59;;;;;;;6.40;3.90;;;;;;;30.00;38.65;100938.70;103662;1285;61382;-81
2023/08/21 02:19:25;;;;;;;4.70;4.00;;;;;;;30.00;38.68;100935.64;103538;1285;61446;-81
2023/08/21 02:21:51;;;;;;;5.10;4.10;;;;;;;29.99;38.70;100936.48;103674;1285;61372;-81
2023/08/21 02:24:16;;;;;;;4.70;4.10;;;;;;;29.99;38.73;100938.63;103627;1287;61393;-81
2023/08/21 02:26:45;;;;;;;5.30;3.90;;;;;;;29.99;38.79;100936.27;103685;1285;63741;-81
2023/08/21 02:29:12;;;;;;;5.30;4.20;;;;;;;30.00;38.79;100938.25;103659;1284;65779;-82
2023/08/21 02:31:37;;;;;;;6.00;4.20;;;;;;;30.00;38.80;100933.86;103675;1286;61387;-82
2023/08/21 02:34:03;;;;;;;5.80;4.10;;;;;;;30.00;38.66;100933.90;103809;1284;61387;-82
2023/08/21 02:36:28;;;;;;;4.60;3.90;;;;;;;29.99;38.79;100936.45;103697;1285;61316;-81
2023/08/21 02:38:55;;;;;;;5.00;4.00;;;;;;;29.99;38.76;100929.92;103782;1284;61382;-81
2023/08/21 02:41:21;;;;;;;4.70;4.20;;;;;;;29.99;38.74;100931.17;103674;1285;65842;-81
2023/08/21 02:43:46;;;;;;;5.30;3.90;;;;;;;29.99;38.67;100933.55;103600;1285;61423;-81
2023/08/21 02:46:12;;;;;;;5.20;3.80;;;;;;;29.99;38.63;100931.58;103804;1284;61362;-82
2023/08/21 02:48:38;;;;;;;5.10;4.10;;;;;;;29.99;38.71;100928.17;103661;1289;61391;-81
2023/08/21 02:51:03;;;;;;;6.80;4.40;;;;;;;29.98;38.70;100929.48;103746;1285;61872;-81
2023/08/21 02:53:29;;;;;;;5.40;4.40;;;;;;;29.99;38.64;100932.16;103682;1290;65618;-81
2023/08/21 02:55:55;;;;;;;5.30;4.10;;;;;;;29.98;38.70;100930.19;103754;1285;62131;-81
2023/08/21 02:58:20;;;;;;;4.50;3.80;;;;;;;29.99;38.64;100924.75;103592;1284;61394;-82
2023/08/21 03:00:46;;;;;;;5.40;3.90;;;;;;;29.98;38.66;100923.86;103637;1285;61452;-81
2023/08/21 03:03:11;;;;;;;5.40;4.20;;;;;;;29.99;38.84;100928.70;103705;1284;61370;-81
2023/08/21 03:05:37;;;;;;;5.40;4.20;;;;;;;29.99;38.88;100928.69;103676;1284;61479;-81
2023/08/21 03:08:03;;;;;;;5.50;4.10;;;;;;;29.99;38.72;100928.50;103735;1285;61415;-81
2023/08/21 03:10:33;;;;;;;5.60;3.90;;;;;;;29.99;38.64;100931.09;103729;1284;61392;-81
2023/08/21 03:12:59;;;;;;;5.80;4.20;;;;;;;29.98;38.81;100931.89;103688;1285;64518;-81
2023/08/21 03:15:24;;;;;;;5.60;4.00;;;;;;;29.98;38.79;100933.52;103626;1284;61311;-81
2023/08/21 03:17:50;;;;;;;5.00;4.10;;;;;;;29.98;38.85;100939.65;103698;1288;61391;-81
2023/08/21 03:20:17;;;;;;;4.90;4.00;;;;;;;29.98;38.72;100939.68;103642;1284;61364;-81
2023/08/21 03:22:43;;;;;;;4.90;3.90;;;;;;;29.98;38.72;100940.73;103715;1285;61399;-81
2023/08/21 03:25:08;;;;;;;4.40;3.70;;;;;;;29.98;38.83;100940.39;103595;1285;61785;-81
2023/08/21 03:27:38;;;;;;;5.40;4.20;;;;;;;29.98;38.74;100938.39;103607;1290;61335;-81
2023/08/21 03:30:08;;;;;;;4.90;4.00;;;;;;;29.98;38.70;100942.38;103573;1284;61383;-81
2023/08/21 03:32:33;;;;;;;4.90;4.10;;;;;;;29.99;38.69;100945.27;103645;1286;63759;-82
2023/08/21 03:34:59;;;;;;;5.90;4.30;;;;;;;29.98;38.70;100942.55;103774;1284;61402;-82
2023/08/21 03:37:25;;;;;;;5.50;4.00;;;;;;;29.98;38.74;100940.47;103582;1287;61426;-81
2023/08/21 03:39:50;;;;;;;5.60;4.10;;;;;;;29.98;38.76;100941.52;103629;1291;61378;-82
2023/08/21 03:42:16;;;;;;;4.60;4.10;;;;;;;29.98;38.69;100941.69;103622;1291;61428;-82
2023/08/21 03:44:41;;;;;;;6.10;4.70;;;;;;;29.98;38.80;100942.07;103556;1289;63905;-81
2023/08/21 03:47:07;;;;;;;5.40;4.00;;;;;;;29.98;38.66;100941.70;103359;1289;61580;-81
2023/08/21 03:49:33;;;;;;;4.80;4.10;;;;;;;29.98;38.81;100944.58;103508;1291;62631;-82
2023/08/21 03:51:58;;;;;;;4.90;4.00;;;;;;;29.98;38.82;100944.41;103569;1289;62233;-81
2023/08/21 03:54:24;;;;;;;5.90;4.20;;;;;;;29.98;38.87;100946.01;103622;1291;61324;-81
2023/08/21 03:56:50;;;;;;;6.80;4.10;;;;;;;29.98;38.78;100948.18;103160;1294;62721;-81
2023/08/21 03:59:16;;;;;;;6.60;4.40;;;;;;;29.99;38.68;100947.27;103601;1291;65674;-81
2023/08/21 04:01:41;;;;;;;5.00;4.30;;;;;;;29.99;38.62;100950.16;103644;1289;62613;-81
2023/08/21 04:04:07;;;;;;;6.00;4.10;;;;;;;29.99;38.70;100954.81;103560;1289;61332;-81
2023/08/21 04:06:32;;;;;;;5.20;4.10;;;;;;;29.99;38.88;100955.39;103691;1289;61406;-81
2023/08/21 04:08:58;;;;;;;5.40;4.20;;;;;;;29.99;38.80;100957.55;103697;1288;61362;-81
2023/08/21 04:11:24;;;;;;;5.30;4.20;;;;;;;29.99;38.74;100962.06;103621;1291;65627;-81
2023/08/21 04:13:49;;;;;;;4.90;4.10;;;;;;;29.99;38.84;100967.50;103590;1289;61465;-81
2023/08/21 04:16:17;;;;;;;5.00;4.20;;;;;;;30.00;38.84;100973.09;103645;1290;61285;-81
2023/08/21 04:18:43;;;;;;;5.60;4.30;;;;;;;29.99;38.72;100972.44;103660;1284;63613;-81
2023/08/21 04:21:09;;;;;;;5.10;4.30;;;;;;;29.99;38.56;100970.42;103717;1284;63188;-81
2023/08/21 04:23:36;;;;;;;5.60;4.40;;;;;;;29.99;38.68;100974.05;103686;1284;61355;-81
2023/08/21 04:26:02;;;;;;;5.20;4.30;;;;;;;29.99;38.72;100972.78;103504;1291;61376;-81
2023/08/21 04:28:31;;;;;;;7.70;4.50;;;;;;;29.99;38.70;100975.17;103757;1288;61316;-81
2023/08/21 04:30:57;;;;;;;5.00;4.20;;;;;;;29.99;38.60;100976.80;103476;1287;65628;-81
2023/08/21 04:33:28;;;;;;;6.30;4.30;;;;;;;29.98;38.65;100974.69;103673;1288;61440;-81
2023/08/21 04:35:53;;;;;;;5.00;4.20;;;;;;;29.99;38.72;100975.34;103663;1289;61304;-81
2023/08/21 04:38:19;;;;;;;5.40;4.50;;;;;;;29.98;38.81;100974.48;103779;1290;61406;-81
2023/08/21 04:40:44;;;;;;;5.10;4.00;;;;;;;29.99;38.60;100973.55;103683;1290;61426;-81
2023/08/21 04:43:10;;;;;;;5.00;4.10;;;;;;;29.98;38.54;100977.41;103551;1285;61436;-81
2023/08/21 04:45:37;;;;;;;6.00;4.60;;;;;;;29.98;38.47;100978.33;103673;1290;62867;-81
2023/08/21 04:48:06;;;;;;;5.00;4.20;;;;;;;29.98;38.41;100977.77;103719;1285;61334;-81
2023/08/21 04:50:31;;;;;;;5.90;4.10;;;;;;;29.98;38.53;100982.84;103728;1285;63908;-81
2023/08/21 04:52:57;;;;;;;5.70;4.20;;;;;;;29.98;38.57;100986.28;103650;1291;61395;-81
2023/08/21 04:55:23;;;;;;;6.40;4.50;;;;;;;29.98;38.33;100987.20;103679;1285;62532;-81
2023/08/21 04:57:49;;;;;;;6.20;4.40;;;;;;;29.98;38.39;100992.30;103743;1289;61352;-81
2023/08/21 05:00:15;;;;;;;7.50;4.70;;;;;;;29.98;38.40;100992.88;103739;1284;61357;-81
2023/08/21 05:02:41;;;;;;;5.20;4.40;;;;;;;29.98;38.26;100994.32;103590;1285;62503;-80
2023/08/21 05:05:06;;;;;;;5.30;4.40;;;;;;;29.98;38.27;100996.30;103718;1285;61581;-81
2023/08/21 05:07:32;;;;;;;7.20;4.40;;;;;;;29.99;38.22;100998.77;103708;1289;61400;-81
2023/08/21 05:10:01;;;;;;;7.90;4.60;;;;;;;29.98;38.48;100997.20;103679;1284;61350;-81
2023/08/21 05:12:27;;;;;;;6.00;4.30;;;;;;;29.98;38.21;100997.56;103851;1285;63854;-80
2023/08/21 05:14:53;;;;;;;5.30;4.50;;;;;;;29.98;38.28;101000.45;103550;1288;61408;-80
2023/08/21 05:17:18;;;;;;;7.30;4.40;;;;;;;29.99;38.28;100997.65;103383;1285;62439;-79
2023/08/21 05:19:44;;;;;;;6.60;4.40;;;;;;;29.99;38.04;100994.34;103411;1291;61388;-79
2023/08/21 05:22:10;;;;;;;6.30;4.20;;;;;;;29.99;38.16;100999.05;103384;1285;61326;-79
2023/08/21 05:24:35;;;;;;;9.90;4.30;;;;;;;30.00;38.03;101002.61;103540;1284;61395;-80
2023/08/21 05:27:01;;;;;;;8.00;4.80;;;;;;;30.00;38.08;101003.71;103567;1285;74427;-80
2023/08/21 05:29:26;;;;;;;5.80;4.30;;;;;;;30.00;38.08;101006.09;103686;1288;61393;-80
2023/08/21 05:31:52;;;;;;;5.70;4.50;;;;;;;30.00;38.08;101008.06;103528;1284;61306;-80
2023/08/21 05:34:17;;;;;;;7.90;4.80;;;;;;;30.00;37.96;101008.41;103548;1284;61360;-80
2023/08/21 05:36:43;;;;;;;6.50;4.60;;;;;;;30.00;38.14;101012.60;103618;1289;61388;-80
2023/08/21 05:39:09;;;;;;;6.00;4.60;;;;;;;30.00;38.11;101012.39;103565;1285;65807;-80
2023/08/21 05:41:35;;;;;;;8.50;4.80;;;;;;;30.00;37.92;101009.29;103497;1290;61330;-80
2023/08/21 05:44:00;;;;;;;6.10;4.60;;;;;;;30.00;37.86;101007.63;103640;1289;61481;-80
2023/08/21 05:46:27;;;;;;;6.10;4.70;;;;;;;30.01;37.83;101009.54;103807;1285;61419;-81
2023/08/21 05:48:52;;;;;;;5.50;4.40;;;;;;;30.02;37.86;101007.70;103674;1285;61382;-80
2023/08/21 05:51:18;;;;;;;5.60;4.30;;;;;;;30.02;37.83;101006.89;103558;1290;62059;-80
2023/08/21 05:53:43;;;;;;;5.70;4.60;;;;;;;30.03;37.83;101008.29;103581;1284;61436;-80
2023/08/21 05:56:09;;;;;;;5.70;4.30;;;;;;;30.04;37.77;101008.02;103662;1285;62511;-80
2023/08/21 05:58:35;;;;;;;6.70;4.80;;;;;;;30.04;37.77;101007.06;103549;1290;61382;-80
2023/08/21 06:01:01;;;;;;;8.00;4.80;;;;;;;30.04;37.78;101002.88;103647;1289;61404;-79
2023/08/21 06:03:26;;;;;;;6.20;4.40;;;;;;;30.04;37.75;101005.02;103475;1286;61308;-80
2023/08/21 06:05:52;;;;;;;6.60;4.60;;;;;;;30.05;37.76;101007.85;103617;1285;61402;-80
2023/08/21 06:08:18;;;;;;;10.10;4.70;;;;;;;30.06;37.64;101013.58;103694;1289;61367;-81
2023/08/21 06:10:44;;;;;;;11.30;5.50;;;;;;;30.06;37.50;101009.41;103705;1285;63666;-80
2023/08/21 06:13:11;;;;;;;10.70;5.80;;;;;;;30.06;37.17;101010.61;103716;1289;64448;-81
2023/08/21 06:15:36;;;;;;;11.70;5.70;;;;;;;30.07;36.91;101012.56;103619;1288;61314;-80
2023/08/21 06:18:02;;;;;;;9.70;5.50;;;;;;;30.08;36.75;101016.47;103785;1286;61447;-80
2023/08/21 06:20:28;;;;;;;13.20;5.50;;;;;;;30.08;36.64;101018.27;103490;1285;61306;-81
2023/08/21 06:22:53;;;;;;;8.90;5.40;;;;;;;30.09;36.70;101019.02;103579;1284;61813;-80
2023/08/21 06:25:19;;;;;;;8.30;4.80;;;;;;;30.11;36.56;101020.36;103605;1285;61469;-80
2023/08/21 06:27:45;;;;;;;7.80;4.70;;;;;;;30.11;36.51;101016.10;103692;1285;61377;-80
2023/08/21 06:30:11;;;;;;;9.80;5.00;;;;;;;30.12;36.75;101022.01;103587;1285;61353;-80
2023/08/21 06:32:37;;;;;;;7.70;5.40;;;;;;;30.13;36.83;101024.24;103526;1287;61463;-80
2023/08/21 06:35:03;;;;;;;6.00;4.50;;;;;;;30.14;36.67;101025.63;103729;1285;61345;-80
2023/08/21 06:37:29;;;;;;;7.70;4.90;;;;;;;30.15;36.56;101027.30;103771;1285;61930;-80
2023/08/21 06:39:54;;;;;;;6.00;4.70;;;;;;;30.16;36.68;101027.28;103535;1285;324186;-80
2023/08/21 06:42:20;;;;;;;9.90;4.60;;;;;;;30.16;36.75;101028.99;103814;1284;61404;-81
2023/08/21 06:44:45;;;;;;;6.50;4.40;;;;;;;30.17;36.75;101022.77;103878;1290;61539;-80
2023/08/21 06:47:11;;;;;;;6.20;4.60;;;;;;;30.18;36.70;101025.56;103761;1285;61993;-81
2023/08/21 06:49:37;;;;;;;8.80;5.00;;;;;;;30.19;36.76;101022.18;103908;1285;61259;-80
2023/08/21 06:52:03;;;;;;;5.80;4.70;;;;;;;30.20;36.76;101021.92;103576;1290;61516;-80
2023/08/21 06:54:29;;;;;;;8.20;4.90;;;;;;;30.20;36.82;101023.70;103754;1285;61690;-80
2023/08/21 06:56:55;;;;;;;5.90;4.60;;;;;;;30.20;36.73;101023.45;103707;1290;61470;-80
2023/08/21 06:59:20;;;;;;;8.60;5.00;;;;;;;30.21;36.67;101027.20;103956;1287;61378;-80
2023/08/21 07:01:46;;;;;;;6.30;4.50;;;;;;;30.22;36.63;101026.23;103636;1285;61359;-80
2023/08/21 07:04:11;;;;;;;7.00;4.80;;;;;;;30.22;36.74;101022.92;103661;1291;62542;-81
2023/08/21 07:06:37;;;;;;;6.10;4.80;;;;;;;30.23;36.70;101022.65;103777;1285;61757;-80
2023/08/21 07:09:03;;;;;;;9.60;4.90;;;;;;;30.23;36.55;101026.63;103739;1289;61473;-80
2023/08/21 07:11:28;;;;;;;6.30;4.70;;;;;;;30.24;36.61;101027.08;103780;1285;61527;-81
2023/08/21 07:13:54;;;;;;;11.30;5.30;;;;;;;30.24;36.72;101032.32;103638;1290;61343;-80
2023/08/21 07:16:20;;;;;;;7.40;4.70;;;;;;;30.25;36.42;101031.33;103602;1286;61303;-81
2023/08/21 07:18:46;;;;;;;7.40;5.10;;;;;;;30.25;36.26;101028.02;103520;1286;61475;-81
2023/08/21 07:21:11;;;;;;;7.10;4.90;;;;;;;30.25;36.21;101027.63;103520;1290;63894;-80
2023/08/21 07:23:37;;;;;;;6.90;5.00;;;;;;;30.26;36.30;101027.07;103666;1290;61393;-80
2023/08/21 07:26:04;;;;;;;8.40;4.70;;;;;;;30.26;36.38;101030.51;103609;1285;62411;-80
2023/08/21 07:28:31;;;;;;;7.80;4.50;;;;;;;30.26;36.39;101028.85;103331;1286;61234;-80
2023/08/21 07:31:01;;;;;;;9.20;5.20;;;;;;;30.26;36.34;101025.55;103448;1290;61370;-80
2023/08/21 07:33:27;;;;;;;7.90;4.90;;;;;;;30.27;36.29;101025.14;103631;1286;65965;-80
2023/08/21 07:36:00;;;;;;;8.70;5.30;;;;;;;30.27;36.09;101024.19;103661;1288;61251;-80
2023/08/21 07:38:26;;;;;;;7.90;5.00;;;;;;;30.27;35.80;101022.77;103834;1289;62039;-80
2023/08/21 07:40:52;;;;;;;7.10;4.60;;;;;;;30.28;35.91;101023.98;103516;1285;61392;-80
2023/08/21 07:43:18;;;;;;;7.20;4.70;;;;;;;30.28;36.05;101022.83;103383;1291;62472;-79
2023/08/21 07:45:43;;;;;;;8.30;4.90;;;;;;;30.29;36.06;101026.94;103656;1284;61934;-80
2023/08/21 07:48:09;;;;;;;8.00;5.00;;;;;;;30.29;35.85;101024.20;103851;1285;62447;-80
2023/08/21 07:50:34;;;;;;;8.20;4.80;;;;;;;30.29;35.98;101020.05;104111;1288;61315;-80
2023/08/21 07:53:00;;;;;;;9.20;5.30;;;;;;;30.29;35.85;101021.64;103946;1290;61412;-81
2023/08/21 07:55:25;;;;;;;9.10;5.10;;;;;;;30.30;35.64;101017.25;103815;1290;61390;-79
2023/08/21 07:57:51;;;;;;;9.20;5.00;;;;;;;30.30;35.47;101015.39;103562;1288;61321;-79
2023/08/21 08:00:17;;;;;;;7.40;4.50;;;;;;;30.30;35.42;101018.45;103812;1286;61452;-80
2023/08/21 08:02:43;;;;;;;7.10;5.00;;;;;;;30.31;35.43;101022.54;103891;1289;62043;-80
2023/08/21 08:05:09;;;;;;;6.80;4.70;;;;;;;30.31;35.55;101022.54;103854;1290;63705;-80
2023/08/21 08:07:34;;;;;;;8.60;4.80;;;;;;;30.32;35.65;101020.08;103664;1290;61466;-80
2023/08/21 08:10:00;;;;;;;6.70;4.60;;;;;;;30.32;35.81;101018.24;103640;1290;62010;-80
2023/08/21 08:12:25;;;;;;;8.40;5.20;;;;;;;30.32;35.91;101018.95;103616;1286;61334;-80
2023/08/21 08:14:51;;;;;;;6.60;4.90;;;;;;;30.33;36.09;101017.42;103566;1291;61398;-80
2023/08/21 08:17:17;;;;;;;6.10;4.70;;;;;;;30.33;36.05;101016.51;103726;1287;62083;-80
2023/08/21 08:19:44;;;;;;;6.50;4.90;;;;;;;30.33;36.10;101013.83;103570;1291;65857;-80
2023/08/21 08:22:09;;;;;;;7.30;5.00;;;;;;;30.32;36.03;101008.75;103517;1286;61746;-80
2023/08/21 08:24:35;;;;;;;6.70;4.70;;;;;;;30.33;36.19;101010.75;103682;1291;61455;-80
2023/08/21 08:27:01;;;;;;;6.70;4.40;;;;;;;30.33;36.17;101010.04;103867;1292;61353;-82
2023/08/21 08:29:27;;;;;;;6.80;4.80;;;;;;;30.32;36.14;101009.57;103563;1291;61468;-80
2023/08/21 08:31:52;;;;;;;7.00;5.00;;;;;;;30.32;36.32;101010.09;103575;1286;61418;-80
2023/08/21 08:34:20;;;;;;;6.80;4.60;;;;;;;30.32;36.30;101013.17;103738;1286;61404;-80
2023/08/21 08:36:46;;;;;;;5.90;4.60;;;;;;;30.32;36.26;101011.51;103954;1291;61409;-80
2023/08/21 08:39:12;;;;;;;9.10;4.80;;;;;;;30.32;36.26;101014.02;103598;1290;61382;-81
2023/08/21 08:41:48;;;;;;;6.10;5.10;;;;;;;30.33;36.32;101008.91;103600;1290;61389;-80
2023/08/21 08:44:14;;;;;;;6.00;4.60;;;;;;;30.32;36.38;101006.61;103737;1286;61190;-80
2023/08/21 08:46:39;;;;;;;8.50;4.80;;;;;;;30.32;36.42;101002.76;103596;1291;61389;-80
2023/08/21 08:49:06;;;;;;;7.50;4.50;;;;;;;30.33;36.48;101004.50;103545;1285;59956;-80
2023/08/21 08:51:31;;;;;;;6.60;5.00;;;;;;;30.33;36.49;100995.51;103415;1301;61364;-80
2023/08/21 08:53:58;;;;;;;8.30;5.00;;;;;;;30.33;36.22;100996.19;103517;1291;61402;-80
2023/08/21 08:56:24;;;;;;;6.50;4.60;;;;;;;30.33;36.23;100992.76;103710;1288;61756;-80
2023/08/21 08:58:50;;;;;;;7.00;4.50;;;;;;;30.33;36.37;100987.52;103788;1285;61366;-81
2023/08/21 09:01:16;;;;;;;6.30;4.40;;;;;;;30.32;36.43;100988.81;104143;1286;61459;-80
2023/08/21 09:03:42;;;;;;;8.80;5.10;;;;;;;30.33;36.45;100983.49;104148;1286;63042;-81
2023/08/21 09:06:08;;;;;;;6.80;4.70;;;;;;;30.33;36.60;100980.33;103744;1290;61304;-80
2023/08/21 09:08:33;;;;;;;7.40;5.00;;;;;;;30.34;36.40;100975.94;103700;1289;61323;-80
2023/08/21 09:11:05;;;;;;;9.00;5.20;;;;;;;30.34;36.50;100973.70;103622;1291;61432;-81
2023/08/21 09:13:31;;;;;;;7.20;5.00;;;;;;;30.34;36.56;100975.94;103410;1288;65629;-80
2023/08/21 09:15:56;;;;;;;6.10;4.50;;;;;;;30.34;36.49;100976.75;103798;1291;61932;-80
2023/08/21 09:18:22;;;;;;;6.40;4.90;;;;;;;30.35;36.44;100966.55;103852;1289;61418;-80
2023/08/21 09:20:48;;;;;;;6.30;4.70;;;;;;;30.35;36.37;100965.45;104139;1286;61433;-80
2023/08/21 09:23:18;;;;;;;6.30;4.60;;;;;;;30.35;36.47;100963.41;103942;1286;65694;-80
2023/08/21 09:25:47;;;;;;;7.50;4.80;;;;;;;30.36;36.49;100964.98;103927;1286;61373;-80
2023/08/21 09:28:13;;;;;;;8.00;4.90;;;;;;;30.36;36.57;100962.98;103734;1294;61277;-80
2023/08/21 09:30:54;;;;;;;5.50;4.50;;;;;;;30.36;36.57;100962.05;103681;1286;61485;-80
2023/08/21 09:33:21;;;;;;;7.40;4.90;;;;;;;30.37;36.44;100956.89;103867;1285;65847;-80
2023/08/21 09:35:48;;;;;;;7.20;5.00;;;;;;;30.37;36.53;100955.62;103689;1293;61827;-80
2023/08/21 09:38:14;;;;;;;9.10;4.60;;;;;;;30.37;36.52;100955.45;103693;1290;61295;-80
2023/08/21 09:40:41;;;;;;;7.00;5.00;;;;;;;30.36;36.52;100952.55;103530;1290;62422;-80
2023/08/21 09:43:08;;;;;;;6.40;4.90;;;;;;;30.37;36.58;100949.09;103545;1285;61283;-80
2023/08/21 09:45:35;;;;;;;5.50;4.50;;;;;;;30.37;36.59;100945.48;103532;1288;61386;-81
2023/08/21 09:48:01;;;;;;;6.20;4.40;;;;;;;30.37;36.63;100940.92;103914;1287;61378;-80
2023/08/21 09:50:26;;;;;;;6.60;4.70;;;;;;;30.37;36.46;100939.84;103855;1285;62060;-80
2023/08/21 09:52:52;;;;;;;6.90;4.40;;;;;;;30.37;36.57;100933.30;103794;1284;61247;-80
2023/08/21 09:55:17;;;;;;;6.40;4.80;;;;;;;30.37;36.53;100929.28;103735;1291;61401;-80
2023/08/21 09:57:43;;;;;;;5.70;4.60;;;;;;;30.37;36.46;100930.55;103709;1285;61387;-80
2023/08/21 10:00:15;;;;;;;5.40;4.50;;;;;;;30.37;36.57;100929.05;103835;1287;61566;-81
2023/08/21 10:02:47;;;;;;;5.80;4.60;;;;;;;30.37;36.60;100925.27;103610;1285;63646;-80
2023/08/21 10:05:16;;;;;;;8.00;5.00;;;;;;;30.38;36.65;100926.86;103626;1291;66041;-80
2023/08/21 10:07:42;;;;;;;6.20;4.90;;;;;;;30.38;36.64;100925.73;103521;1287;61405;-79
2023/08/21 10:10:08;;;;;;;7.50;4.90;;;;;;;30.38;36.55;100929.77;103540;1291;61380;-80
2023/08/21 10:12:33;;;;;;;6.10;4.80;;;;;;;30.38;36.68;100927.34;103589;1288;61416;-80
2023/08/21 10:14:59;;;;;;;5.10;4.40;;;;;;;30.38;36.63;100925.50;103902;1289;61347;-80
2023/08/21 10:17:25;;;;;;;5.60;4.80;;;;;;;30.38;36.68;100919.92;103989;1285;61380;-80
2023/08/21 10:19:52;;;;;;;5.40;4.40;;;;;;;30.38;36.75;100912.46;103818;1290;61407;-80
2023/08/21 10:22:45;;;;;;;6.90;4.80;;;;;;;30.38;36.74;100911.95;103675;1286;61351;-80
2023/08/21 10:25:22;;;;;;;5.60;4.50;;;;;;;30.38;36.79;100904.52;103796;1284;64908;-80
2023/08/21 10:27:55;;;;;;;6.80;5.00;;;;;;;30.38;36.77;100904.16;103809;1285;66019;-80
2023/08/21 10:30:28;;;;;;;6.10;4.50;;;;;;;30.38;36.78;100903.37;103855;1285;61425;-80
2023/08/21 10:32:58;;;;;;;7.10;4.80;;;;;;;30.39;36.85;100903.67;103598;1284;61270;-80
2023/08/21 10:35:31;;;;;;;5.80;5.10;;;;;;;30.39;36.72;100901.80;103773;1290;63906;-81
2023/08/21 10:38:17;;;;;;;5.80;4.90;;;;;;;30.39;36.92;100901.67;103858;1286;65837;-81
2023/08/21 10:41:05;;;;;;;6.30;4.40;;;;;;;30.39;36.88;100896.73;103708;1286;61363;-80
2023/08/21 10:43:44;;;;;;;5.50;4.90;;;;;;;30.39;36.98;100888.59;103819;1286;61270;-80
2023/08/21 10:46:10;;;;;;;5.50;4.60;;;;;;;30.39;36.85;100884.27;103745;1285;63867;-80
2023/08/21 10:48:36;;;;;;;7.10;4.70;;;;;;;30.38;36.74;100892.83;103742;1285;62522;-80
2023/08/21 10:51:04;;;;;;;6.10;4.50;;;;;;;30.39;36.77;100883.14;103638;1290;61794;-80
2023/08/21 10:53:30;;;;;;;6.60;4.40;;;;;;;30.39;36.73;100880.27;103819;1284;61273;-81
2023/08/21 10:55:56;;;;;;;6.70;4.80;;;;;;;30.39;36.71;100882.64;103657;1289;62504;-79
2023/08/21 10:58:22;;;;;;;6.60;5.10;;;;;;;30.39;36.70;100884.98;103499;1285;61312;-80
2023/08/21 11:00:57;;;;;;;6.50;4.90;;;;;;;30.38;36.76;100883.01;103980;1285;62488;-80
2023/08/21 11:03:22;;;;;;;5.20;4.30;;;;;;;30.39;36.77;100883.70;104020;1289;62282;-81
2023/08/21 11:06:04;;;;;;;6.70;4.60;;;;;;;30.39;36.86;100881.65;103989;1285;61334;-81
2023/08/21 11:08:31;;;;;;;6.30;4.90;;;;;;;30.39;36.86;100875.86;103725;1289;66193;-80
2023/08/21 11:10:56;;;;;;;6.30;4.40;;;;;;;30.39;36.79;100876.58;103727;1286;61291;-80
2023/08/21 11:13:25;;;;;;;5.30;4.50;;;;;;;30.40;36.72;100881.61;103775;1288;61401;-81